sensor_id;sensor_type;location;lat;lon;timestamp;P1;durP1;ratioP1;P2;durP2;ratioP2
78402;SDS011;67687;43.508;1.504;2024-03-07T00:02:09;12.07;;;5.05;;
78402;SDS011;67687;43.508;1.504;2024-03-07T00:04:37;10.75;;;5.63;;
78402;SDS011;67687;43.508;1.504;2024-03-07T00:07:03;15.52;;;6.22;;
78402;SDS011;67687;43.508;1.504;2024-03-07T00:09:31;14.00;;;5.87;;
78402;SDS011;67687;43.508;1.504;2024-03-07T00:11:58;13.18;;;6.30;;
78402;SDS011;67687;43.508;1.504;2024-03-07T00:14:24;12.68;;;5.18;;
78402;SDS011;67687;43.508;1.504;2024-03-07T00:16:52;11.68;;;5.13;;
78402;SDS011;67687;43.508;1.504;2024-03-07T00:19:18;9.65;;;4.88;;
78402;SDS011;67687;43.508;1.504;2024-03-07T00:21:46;10.77;;;5.93;;
78402;SDS011;67687;43.508;1.504;2024-03-07T00:24:12;10.00;;;5.05;;
78402;SDS011;67687;43.508;1.504;2024-03-07T00:26:41;16.90;;;5.72;;
78402;SDS011;67687;43.508;1.504;2024-03-07T00:29:07;12.75;;;5.57;;
78402;SDS011;67687;43.508;1.504;2024-03-07T00:31:34;13.00;;;5.53;;
78402;SDS011;67687;43.508;1.504;2024-03-07T00:34:00;9.53;;;4.60;;
78402;SDS011;67687;43.508;1.504;2024-03-07T00:36:27;13.93;;;6.72;;
78402;SDS011;67687;43.508;1.504;2024-03-07T00:38:57;9.68;;;4.18;;
78402;SDS011;67687;43.508;1.504;2024-03-07T00:41:25;14.15;;;5.15;;
78402;SDS011;67687;43.508;1.504;2024-03-07T00:43:51;11.15;;;5.15;;
78402;SDS011;67687;43.508;1.504;2024-03-07T00:46:18;10.10;;;4.30;;
78402;SDS011;67687;43.508;1.504;2024-03-07T00:48:44;10.07;;;4.22;;
78402;SDS011;67687;43.508;1.504;2024-03-07T00:51:11;8.13;;;3.90;;
78402;SDS011;67687;43.508;1.504;2024-03-07T00:53:38;9.48;;;4.32;;
78402;SDS011;67687;43.508;1.504;2024-03-07T00:56:06;7.13;;;3.75;;
78402;SDS011;67687;43.508;1.504;2024-03-07T00:58:32;6.97;;;3.60;;
78402;SDS011;67687;43.508;1.504;2024-03-07T01:00:59;6.97;;;3.75;;
78402;SDS011;67687;43.508;1.504;2024-03-07T01:03:26;9.73;;;4.32;;
78402;SDS011;67687;43.508;1.504;2024-03-07T01:05:53;11.93;;;5.15;;
78402;SDS011;67687;43.508;1.504;2024-03-07T01:08:19;12.13;;;4.93;;
78402;SDS011;67687;43.508;1.504;2024-03-07T01:10:46;10.80;;;4.63;;
78402;SDS011;67687;43.508;1.504;2024-03-07T01:13:14;10.05;;;3.85;;
78402;SDS011;67687;43.508;1.504;2024-03-07T01:15:44;6.93;;;3.42;;
78402;SDS011;67687;43.508;1.504;2024-03-07T01:18:11;7.38;;;3.42;;
78402;SDS011;67687;43.508;1.504;2024-03-07T01:20:38;9.07;;;4.13;;
78402;SDS011;67687;43.508;1.504;2024-03-07T01:23:04;8.40;;;4.20;;
78402;SDS011;67687;43.508;1.504;2024-03-07T01:25:32;9.60;;;3.90;;
78402;SDS011;67687;43.508;1.504;2024-03-07T01:27:59;8.63;;;4.22;;
78402;SDS011;67687;43.508;1.504;2024-03-07T01:30:27;10.77;;;4.28;;
78402;SDS011;67687;43.508;1.504;2024-03-07T01:32:54;9.90;;;4.47;;
78402;SDS011;67687;43.508;1.504;2024-03-07T01:35:20;10.47;;;4.90;;
78402;SDS011;67687;43.508;1.504;2024-03-07T01:37:47;9.85;;;4.60;;
78402;SDS011;67687;43.508;1.504;2024-03-07T01:40:13;10.40;;;4.28;;
78402;SDS011;67687;43.508;1.504;2024-03-07T01:42:40;9.18;;;4.30;;
78402;SDS011;67687;43.508;1.504;2024-03-07T01:45:07;10.30;;;4.57;;
78402;SDS011;67687;43.508;1.504;2024-03-07T01:47:36;9.10;;;4.60;;
78402;SDS011;67687;43.508;1.504;2024-03-07T01:50:03;9.35;;;3.47;;
78402;SDS011;67687;43.508;1.504;2024-03-07T01:52:29;7.78;;;4.53;;
78402;SDS011;67687;43.508;1.504;2024-03-07T01:54:56;8.95;;;3.92;;
78402;SDS011;67687;43.508;1.504;2024-03-07T01:57:23;8.88;;;3.72;;
78402;SDS011;67687;43.508;1.504;2024-03-07T01:59:49;8.43;;;4.07;;
78402;SDS011;67687;43.508;1.504;2024-03-07T02:02:16;9.52;;;4.30;;
78402;SDS011;67687;43.508;1.504;2024-03-07T02:04:45;8.02;;;3.92;;
78402;SDS011;67687;43.508;1.504;2024-03-07T02:07:11;8.00;;;4.00;;
78402;SDS011;67687;43.508;1.504;2024-03-07T02:09:38;9.15;;;4.28;;
78402;SDS011;67687;43.508;1.504;2024-03-07T02:12:05;9.10;;;4.20;;
78402;SDS011;67687;43.508;1.504;2024-03-07T02:14:32;8.55;;;4.00;;
78402;SDS011;67687;43.508;1.504;2024-03-07T02:16:58;9.27;;;4.13;;
78402;SDS011;67687;43.508;1.504;2024-03-07T02:19:25;8.23;;;3.65;;
78402;SDS011;67687;43.508;1.504;2024-03-07T02:21:53;6.45;;;3.13;;
78402;SDS011;67687;43.508;1.504;2024-03-07T02:24:19;8.17;;;3.03;;
78402;SDS011;67687;43.508;1.504;2024-03-07T02:26:46;7.78;;;3.30;;
78402;SDS011;67687;43.508;1.504;2024-03-07T02:29:12;4.57;;;2.63;;
78402;SDS011;67687;43.508;1.504;2024-03-07T02:31:39;6.43;;;3.33;;
78402;SDS011;67687;43.508;1.504;2024-03-07T02:34:06;7.85;;;3.28;;
78402;SDS011;67687;43.508;1.504;2024-03-07T02:36:33;6.40;;;3.20;;
78402;SDS011;67687;43.508;1.504;2024-03-07T02:39:01;7.47;;;3.65;;
78402;SDS011;67687;43.508;1.504;2024-03-07T02:41:28;6.93;;;3.72;;
78402;SDS011;67687;43.508;1.504;2024-03-07T02:43:54;9.07;;;2.90;;
78402;SDS011;67687;43.508;1.504;2024-03-07T02:46:21;5.97;;;3.10;;
78402;SDS011;67687;43.508;1.504;2024-03-07T02:48:47;6.90;;;3.30;;
78402;SDS011;67687;43.508;1.504;2024-03-07T02:51:14;7.18;;;3.38;;
78402;SDS011;67687;43.508;1.504;2024-03-07T02:53:40;7.35;;;3.55;;
78402;SDS011;67687;43.508;1.504;2024-03-07T02:56:09;7.38;;;3.15;;
78402;SDS011;67687;43.508;1.504;2024-03-07T02:58:36;5.78;;;3.10;;
78402;SDS011;67687;43.508;1.504;2024-03-07T03:01:04;5.03;;;2.60;;
78402;SDS011;67687;43.508;1.504;2024-03-07T03:03:30;7.82;;;3.00;;
78402;SDS011;67687;43.508;1.504;2024-03-07T03:05:57;5.88;;;2.85;;
78402;SDS011;67687;43.508;1.504;2024-03-07T03:08:24;5.10;;;2.95;;
78402;SDS011;67687;43.508;1.504;2024-03-07T03:10:51;7.68;;;2.72;;
78402;SDS011;67687;43.508;1.504;2024-03-07T03:13:19;6.13;;;2.43;;
78402;SDS011;67687;43.508;1.504;2024-03-07T03:15:45;7.90;;;2.50;;
78402;SDS011;67687;43.508;1.504;2024-03-07T03:18:12;5.72;;;2.45;;
78402;SDS011;67687;43.508;1.504;2024-03-07T03:20:38;6.72;;;2.30;;
78402;SDS011;67687;43.508;1.504;2024-03-07T03:23:06;6.20;;;2.10;;
78402;SDS011;67687;43.508;1.504;2024-03-07T03:25:36;5.80;;;2.40;;
78402;SDS011;67687;43.508;1.504;2024-03-07T03:28:03;5.03;;;2.20;;
78402;SDS011;67687;43.508;1.504;2024-03-07T03:30:31;4.43;;;1.75;;
78402;SDS011;67687;43.508;1.504;2024-03-07T03:32:58;4.57;;;2.10;;
78402;SDS011;67687;43.508;1.504;2024-03-07T03:35:24;4.30;;;1.83;;
78402;SDS011;67687;43.508;1.504;2024-03-07T03:37:51;4.87;;;1.70;;
78402;SDS011;67687;43.508;1.504;2024-03-07T03:40:17;6.53;;;1.83;;
78402;SDS011;67687;43.508;1.504;2024-03-07T03:42:46;4.22;;;1.75;;
78402;SDS011;67687;43.508;1.504;2024-03-07T03:45:13;5.35;;;1.60;;
78402;SDS011;67687;43.508;1.504;2024-03-07T03:47:42;4.53;;;1.70;;
78402;SDS011;67687;43.508;1.504;2024-03-07T03:50:09;4.50;;;1.70;;
78402;SDS011;67687;43.508;1.504;2024-03-07T03:52:36;4.78;;;1.58;;
78402;SDS011;67687;43.508;1.504;2024-03-07T03:55:03;4.13;;;1.88;;
78402;SDS011;67687;43.508;1.504;2024-03-07T03:57:30;3.58;;;1.30;;
78402;SDS011;67687;43.508;1.504;2024-03-07T03:59:58;4.80;;;1.40;;
78402;SDS011;67687;43.508;1.504;2024-03-07T04:02:24;6.13;;;1.87;;
78402;SDS011;67687;43.508;1.504;2024-03-07T04:04:52;3.60;;;1.17;;
78402;SDS011;67687;43.508;1.504;2024-03-07T04:07:19;4.63;;;1.95;;
78402;SDS011;67687;43.508;1.504;2024-03-07T04:09:46;3.70;;;1.13;;
78402;SDS011;67687;43.508;1.504;2024-03-07T04:12:12;6.18;;;1.75;;
78402;SDS011;67687;43.508;1.504;2024-03-07T04:14:40;4.90;;;1.50;;
78402;SDS011;67687;43.508;1.504;2024-03-07T04:17:07;4.47;;;1.60;;
78402;SDS011;67687;43.508;1.504;2024-03-07T04:19:34;3.75;;;1.42;;
78402;SDS011;67687;43.508;1.504;2024-03-07T04:22:02;3.42;;;1.35;;
78402;SDS011;67687;43.508;1.504;2024-03-07T04:24:29;3.55;;;1.05;;
78402;SDS011;67687;43.508;1.504;2024-03-07T04:26:58;4.83;;;1.60;;
78402;SDS011;67687;43.508;1.504;2024-03-07T04:29:24;5.32;;;1.73;;
78402;SDS011;67687;43.508;1.504;2024-03-07T04:31:51;4.47;;;1.50;;
78402;SDS011;67687;43.508;1.504;2024-03-07T04:34:17;4.75;;;1.88;;
78402;SDS011;67687;43.508;1.504;2024-03-07T04:36:44;2.72;;;0.93;;
78402;SDS011;67687;43.508;1.504;2024-03-07T04:39:11;3.90;;;1.53;;
78402;SDS011;67687;43.508;1.504;2024-03-07T04:41:50;4.55;;;1.45;;
78402;SDS011;67687;43.508;1.504;2024-03-07T04:44:16;2.90;;;0.93;;
78402;SDS011;67687;43.508;1.504;2024-03-07T04:46:42;4.47;;;1.40;;
78402;SDS011;67687;43.508;1.504;2024-03-07T04:49:09;4.10;;;1.60;;
78402;SDS011;67687;43.508;1.504;2024-03-07T04:51:36;5.23;;;1.40;;
78402;SDS011;67687;43.508;1.504;2024-03-07T04:54:02;2.47;;;1.00;;
78402;SDS011;67687;43.508;1.504;2024-03-07T04:56:30;4.57;;;1.52;;
78402;SDS011;67687;43.508;1.504;2024-03-07T04:58:57;4.70;;;1.50;;
78402;SDS011;67687;43.508;1.504;2024-03-07T05:01:23;3.17;;;1.20;;
78402;SDS011;67687;43.508;1.504;2024-03-07T05:03:50;3.87;;;1.70;;
78402;SDS011;67687;43.508;1.504;2024-03-07T05:06:17;4.80;;;1.35;;
78402;SDS011;67687;43.508;1.504;2024-03-07T05:08:44;4.05;;;1.48;;
78402;SDS011;67687;43.508;1.504;2024-03-07T05:11:10;4.63;;;1.92;;
78402;SDS011;67687;43.508;1.504;2024-03-07T05:13:38;6.05;;;1.50;;
78402;SDS011;67687;43.508;1.504;2024-03-07T05:16:07;5.07;;;1.80;;
78402;SDS011;67687;43.508;1.504;2024-03-07T05:18:33;3.67;;;1.40;;
78402;SDS011;67687;43.508;1.504;2024-03-07T05:21:00;3.78;;;1.55;;
78402;SDS011;67687;43.508;1.504;2024-03-07T05:23:47;3.15;;;1.23;;
78402;SDS011;67687;43.508;1.504;2024-03-07T05:26:15;4.28;;;1.60;;
78402;SDS011;67687;43.508;1.504;2024-03-07T05:28:42;4.53;;;1.57;;
78402;SDS011;67687;43.508;1.504;2024-03-07T05:31:09;5.10;;;1.45;;
78402;SDS011;67687;43.508;1.504;2024-03-07T05:33:37;6.05;;;1.70;;
78402;SDS011;67687;43.508;1.504;2024-03-07T05:36:05;4.57;;;1.60;;
78402;SDS011;67687;43.508;1.504;2024-03-07T05:38:40;6.18;;;1.52;;
78402;SDS011;67687;43.508;1.504;2024-03-07T05:41:08;5.40;;;1.40;;
78402;SDS011;67687;43.508;1.504;2024-03-07T05:43:35;4.90;;;1.70;;
78402;SDS011;67687;43.508;1.504;2024-03-07T05:46:03;4.03;;;1.38;;
78402;SDS011;67687;43.508;1.504;2024-03-07T05:48:32;3.15;;;1.20;;
78402;SDS011;67687;43.508;1.504;2024-03-07T05:50:58;4.13;;;1.20;;
78402;SDS011;67687;43.508;1.504;2024-03-07T05:53:25;3.57;;;1.60;;
78402;SDS011;67687;43.508;1.504;2024-03-07T05:55:51;5.88;;;1.38;;
78402;SDS011;67687;43.508;1.504;2024-03-07T05:58:18;5.13;;;1.70;;
78402;SDS011;67687;43.508;1.504;2024-03-07T06:00:46;5.13;;;1.50;;
78402;SDS011;67687;43.508;1.504;2024-03-07T06:03:16;3.88;;;1.27;;
78402;SDS011;67687;43.508;1.504;2024-03-07T06:05:45;3.03;;;1.30;;
78402;SDS011;67687;43.508;1.504;2024-03-07T06:08:13;3.92;;;1.55;;
78402;SDS011;67687;43.508;1.504;2024-03-07T06:10:41;6.07;;;1.60;;
78402;SDS011;67687;43.508;1.504;2024-03-07T06:13:08;3.67;;;1.20;;
78402;SDS011;67687;43.508;1.504;2024-03-07T06:15:34;3.63;;;1.33;;
78402;SDS011;67687;43.508;1.504;2024-03-07T06:18:02;4.90;;;1.30;;
78402;SDS011;67687;43.508;1.504;2024-03-07T06:20:29;3.95;;;1.75;;
78402;SDS011;67687;43.508;1.504;2024-03-07T06:22:57;3.85;;;1.65;;
78402;SDS011;67687;43.508;1.504;2024-03-07T06:25:24;3.17;;;1.02;;
78402;SDS011;67687;43.508;1.504;2024-03-07T06:28:01;3.45;;;1.40;;
78402;SDS011;67687;43.508;1.504;2024-03-07T06:30:34;3.43;;;1.03;;
78402;SDS011;67687;43.508;1.504;2024-03-07T06:33:01;4.13;;;1.30;;
78402;SDS011;67687;43.508;1.504;2024-03-07T06:35:27;4.70;;;1.10;;
78402;SDS011;67687;43.508;1.504;2024-03-07T06:37:55;3.42;;;0.80;;
78402;SDS011;67687;43.508;1.504;2024-03-07T06:40:21;4.03;;;1.20;;
78402;SDS011;67687;43.508;1.504;2024-03-07T06:42:48;4.40;;;0.90;;
78402;SDS011;67687;43.508;1.504;2024-03-07T06:45:14;4.38;;;1.15;;
78402;SDS011;67687;43.508;1.504;2024-03-07T06:47:41;2.80;;;0.90;;
78402;SDS011;67687;43.508;1.504;2024-03-07T06:50:08;3.25;;;1.10;;
78402;SDS011;67687;43.508;1.504;2024-03-07T06:52:39;3.88;;;0.98;;
78402;SDS011;67687;43.508;1.504;2024-03-07T06:55:07;3.77;;;1.00;;
78402;SDS011;67687;43.508;1.504;2024-03-07T06:57:34;3.10;;;0.82;;
78402;SDS011;67687;43.508;1.504;2024-03-07T07:00:00;5.47;;;1.10;;
78402;SDS011;67687;43.508;1.504;2024-03-07T07:02:35;4.30;;;1.35;;
78402;SDS011;67687;43.508;1.504;2024-03-07T07:05:02;3.42;;;0.98;;
78402;SDS011;67687;43.508;1.504;2024-03-07T07:07:32;2.90;;;0.90;;
78402;SDS011;67687;43.508;1.504;2024-03-07T07:09:59;3.45;;;0.95;;
78402;SDS011;67687;43.508;1.504;2024-03-07T07:12:27;3.83;;;0.85;;
78402;SDS011;67687;43.508;1.504;2024-03-07T07:14:54;3.38;;;0.90;;
78402;SDS011;67687;43.508;1.504;2024-03-07T07:17:21;4.82;;;1.40;;
78402;SDS011;67687;43.508;1.504;2024-03-07T07:19:49;2.50;;;0.90;;
78402;SDS011;67687;43.508;1.504;2024-03-07T07:22:15;3.13;;;0.85;;
78402;SDS011;67687;43.508;1.504;2024-03-07T07:24:43;5.53;;;0.90;;
78402;SDS011;67687;43.508;1.504;2024-03-07T07:27:09;2.40;;;0.75;;
78402;SDS011;67687;43.508;1.504;2024-03-07T07:29:37;2.50;;;0.75;;
78402;SDS011;67687;43.508;1.504;2024-03-07T07:32:04;2.90;;;0.90;;
78402;SDS011;67687;43.508;1.504;2024-03-07T07:34:31;3.75;;;1.02;;
78402;SDS011;67687;43.508;1.504;2024-03-07T07:36:57;2.80;;;0.80;;
78402;SDS011;67687;43.508;1.504;2024-03-07T07:39:23;2.33;;;0.68;;
78402;SDS011;67687;43.508;1.504;2024-03-07T07:41:50;2.92;;;0.85;;
78402;SDS011;67687;43.508;1.504;2024-03-07T07:44:16;2.23;;;0.83;;
78402;SDS011;67687;43.508;1.504;2024-03-07T07:46:45;3.85;;;1.17;;
78402;SDS011;67687;43.508;1.504;2024-03-07T07:49:12;3.45;;;0.80;;
78402;SDS011;67687;43.508;1.504;2024-03-07T07:51:39;2.72;;;0.80;;
78402;SDS011;67687;43.508;1.504;2024-03-07T07:54:05;4.72;;;1.13;;
78402;SDS011;67687;43.508;1.504;2024-03-07T07:56:34;2.67;;;0.90;;
78402;SDS011;67687;43.508;1.504;2024-03-07T07:59:01;4.53;;;0.90;;
78402;SDS011;67687;43.508;1.504;2024-03-07T08:01:28;5.43;;;0.93;;
78402;SDS011;67687;43.508;1.504;2024-03-07T08:03:56;3.03;;;0.73;;
78402;SDS011;67687;43.508;1.504;2024-03-07T08:06:24;3.42;;;0.80;;
78402;SDS011;67687;43.508;1.504;2024-03-07T08:08:50;2.77;;;0.80;;
78402;SDS011;67687;43.508;1.504;2024-03-07T08:11:17;2.40;;;0.60;;
78402;SDS011;67687;43.508;1.504;2024-03-07T08:13:43;2.97;;;0.68;;
78402;SDS011;67687;43.508;1.504;2024-03-07T08:16:12;2.97;;;0.68;;
78402;SDS011;67687;43.508;1.504;2024-03-07T08:18:39;3.78;;;0.73;;
78402;SDS011;67687;43.508;1.504;2024-03-07T08:21:06;4.07;;;0.90;;
78402;SDS011;67687;43.508;1.504;2024-03-07T08:23:35;4.15;;;0.80;;
78402;SDS011;67687;43.508;1.504;2024-03-07T08:26:02;3.85;;;1.05;;
78402;SDS011;67687;43.508;1.504;2024-03-07T08:28:30;3.92;;;0.98;;
78402;SDS011;67687;43.508;1.504;2024-03-07T08:30:57;2.13;;;0.55;;
78402;SDS011;67687;43.508;1.504;2024-03-07T08:33:24;3.33;;;0.80;;
78402;SDS011;67687;43.508;1.504;2024-03-07T08:35:51;2.80;;;0.75;;
78402;SDS011;67687;43.508;1.504;2024-03-07T08:38:19;2.88;;;0.60;;
78402;SDS011;67687;43.508;1.504;2024-03-07T08:40:46;3.35;;;1.00;;
78402;SDS011;67687;43.508;1.504;2024-03-07T08:43:13;2.42;;;0.70;;
78402;SDS011;67687;43.508;1.504;2024-03-07T08:45:39;3.53;;;1.07;;
78402;SDS011;67687;43.508;1.504;2024-03-07T08:48:06;2.97;;;0.70;;
78402;SDS011;67687;43.508;1.504;2024-03-07T08:50:33;4.22;;;0.77;;
78402;SDS011;67687;43.508;1.504;2024-03-07T08:53:00;2.38;;;0.80;;
78402;SDS011;67687;43.508;1.504;2024-03-07T08:55:28;3.92;;;0.80;;
78402;SDS011;67687;43.508;1.504;2024-03-07T08:57:55;9.20;;;0.93;;
78402;SDS011;67687;43.508;1.504;2024-03-07T09:00:22;2.72;;;0.77;;
78402;SDS011;67687;43.508;1.504;2024-03-07T09:02:49;2.97;;;0.70;;
78402;SDS011;67687;43.508;1.504;2024-03-07T09:05:17;2.10;;;0.60;;
78402;SDS011;67687;43.508;1.504;2024-03-07T09:07:44;5.13;;;0.75;;
78402;SDS011;67687;43.508;1.504;2024-03-07T09:10:12;2.70;;;0.90;;
78402;SDS011;67687;43.508;1.504;2024-03-07T09:12:41;3.58;;;0.88;;
78402;SDS011;67687;43.508;1.504;2024-03-07T09:15:08;3.75;;;0.80;;
78402;SDS011;67687;43.508;1.504;2024-03-07T09:17:35;4.35;;;0.80;;
78402;SDS011;67687;43.508;1.504;2024-03-07T09:20:02;9.38;;;0.90;;
78402;SDS011;67687;43.508;1.504;2024-03-07T09:22:30;5.23;;;1.13;;
78402;SDS011;67687;43.508;1.504;2024-03-07T09:24:56;4.22;;;1.13;;
78402;SDS011;67687;43.508;1.504;2024-03-07T09:27:23;5.00;;;1.00;;
78402;SDS011;67687;43.508;1.504;2024-03-07T09:29:51;3.17;;;0.80;;
78402;SDS011;67687;43.508;1.504;2024-03-07T09:32:17;3.80;;;1.10;;
78402;SDS011;67687;43.508;1.504;2024-03-07T09:34:47;4.07;;;1.00;;
78402;SDS011;67687;43.508;1.504;2024-03-07T09:37:14;4.63;;;1.10;;
78402;SDS011;67687;43.508;1.504;2024-03-07T09:39:41;4.93;;;0.98;;
78402;SDS011;67687;43.508;1.504;2024-03-07T09:42:08;3.65;;;0.90;;
78402;SDS011;67687;43.508;1.504;2024-03-07T09:44:35;3.05;;;0.95;;
78402;SDS011;67687;43.508;1.504;2024-03-07T09:47:06;3.00;;;1.00;;
78402;SDS011;67687;43.508;1.504;2024-03-07T09:49:33;2.90;;;0.90;;
78402;SDS011;67687;43.508;1.504;2024-03-07T09:52:00;4.57;;;1.02;;
78402;SDS011;67687;43.508;1.504;2024-03-07T09:54:30;3.50;;;1.00;;
78402;SDS011;67687;43.508;1.504;2024-03-07T09:56:58;3.47;;;0.70;;
78402;SDS011;67687;43.508;1.504;2024-03-07T09:59:25;5.50;;;0.70;;
78402;SDS011;67687;43.508;1.504;2024-03-07T10:01:53;2.95;;;0.90;;
78402;SDS011;67687;43.508;1.504;2024-03-07T10:04:26;3.83;;;0.98;;
78402;SDS011;67687;43.508;1.504;2024-03-07T10:06:55;3.33;;;1.10;;
78402;SDS011;67687;43.508;1.504;2024-03-07T10:09:21;3.53;;;1.10;;
78402;SDS011;67687;43.508;1.504;2024-03-07T10:11:54;5.13;;;1.20;;
78402;SDS011;67687;43.508;1.504;2024-03-07T10:14:21;4.65;;;1.10;;
78402;SDS011;67687;43.508;1.504;2024-03-07T10:16:47;6.22;;;1.30;;
78402;SDS011;67687;43.508;1.504;2024-03-07T10:19:14;3.17;;;0.95;;
78402;SDS011;67687;43.508;1.504;2024-03-07T10:21:42;3.53;;;1.13;;
78402;SDS011;67687;43.508;1.504;2024-03-07T10:24:08;4.80;;;1.20;;
78402;SDS011;67687;43.508;1.504;2024-03-07T10:26:36;3.53;;;1.27;;
78402;SDS011;67687;43.508;1.504;2024-03-07T10:29:03;5.03;;;1.35;;
78402;SDS011;67687;43.508;1.504;2024-03-07T10:31:30;7.57;;;1.15;;
78402;SDS011;67687;43.508;1.504;2024-03-07T10:33:58;4.30;;;1.33;;
78402;SDS011;67687;43.508;1.504;2024-03-07T10:36:25;3.67;;;1.10;;
78402;SDS011;67687;43.508;1.504;2024-03-07T10:38:53;3.58;;;0.98;;
78402;SDS011;67687;43.508;1.504;2024-03-07T10:41:20;4.90;;;1.13;;
78402;SDS011;67687;43.508;1.504;2024-03-07T10:43:51;4.70;;;1.17;;
78402;SDS011;67687;43.508;1.504;2024-03-07T10:46:23;4.60;;;1.73;;
78402;SDS011;67687;43.508;1.504;2024-03-07T10:48:50;3.23;;;1.20;;
78402;SDS011;67687;43.508;1.504;2024-03-07T10:51:21;4.07;;;1.05;;
78402;SDS011;67687;43.508;1.504;2024-03-07T10:53:56;7.38;;;1.73;;
78402;SDS011;67687;43.508;1.504;2024-03-07T10:56:29;6.15;;;1.30;;
78402;SDS011;67687;43.508;1.504;2024-03-07T10:59:01;4.05;;;1.30;;
78402;SDS011;67687;43.508;1.504;2024-03-07T11:01:35;3.70;;;1.07;;
78402;SDS011;67687;43.508;1.504;2024-03-07T11:04:05;4.47;;;1.02;;
78402;SDS011;67687;43.508;1.504;2024-03-07T11:06:32;5.90;;;1.25;;
78402;SDS011;67687;43.508;1.504;2024-03-07T11:09:02;6.38;;;1.45;;
78402;SDS011;67687;43.508;1.504;2024-03-07T11:11:35;4.25;;;1.30;;
78402;SDS011;67687;43.508;1.504;2024-03-07T11:14:02;3.90;;;1.30;;
78402;SDS011;67687;43.508;1.504;2024-03-07T11:16:29;5.35;;;1.20;;
78402;SDS011;67687;43.508;1.504;2024-03-07T11:21:47;4.00;;;1.40;;
78402;SDS011;67687;43.508;1.504;2024-03-07T11:24:25;4.90;;;1.33;;
78402;SDS011;67687;43.508;1.504;2024-03-07T11:26:53;4.77;;;1.30;;
78402;SDS011;67687;43.508;1.504;2024-03-07T11:29:38;3.88;;;1.17;;
78402;SDS011;67687;43.508;1.504;2024-03-07T11:32:08;6.15;;;1.20;;
78402;SDS011;67687;43.508;1.504;2024-03-07T11:34:37;6.82;;;1.05;;
78402;SDS011;67687;43.508;1.504;2024-03-07T11:37:03;2.30;;;0.88;;
78402;SDS011;67687;43.508;1.504;2024-03-07T11:39:40;4.03;;;1.10;;
78402;SDS011;67687;43.508;1.504;2024-03-07T11:42:07;3.03;;;0.90;;
78402;SDS011;67687;43.508;1.504;2024-03-07T11:44:34;4.35;;;1.40;;
78402;SDS011;67687;43.508;1.504;2024-03-07T11:47:00;3.03;;;1.20;;
78402;SDS011;67687;43.508;1.504;2024-03-07T11:49:33;4.05;;;1.15;;
78402;SDS011;67687;43.508;1.504;2024-03-07T11:52:00;3.53;;;1.23;;
78402;SDS011;67687;43.508;1.504;2024-03-07T11:54:29;2.65;;;1.10;;
78402;SDS011;67687;43.508;1.504;2024-03-07T11:56:57;3.15;;;1.20;;
78402;SDS011;67687;43.508;1.504;2024-03-07T11:59:24;4.13;;;1.33;;
78402;SDS011;67687;43.508;1.504;2024-03-07T12:01:57;5.75;;;1.48;;
78402;SDS011;67687;43.508;1.504;2024-03-07T12:04:26;4.20;;;1.20;;
78402;SDS011;67687;43.508;1.504;2024-03-07T12:06:52;3.17;;;1.00;;
78402;SDS011;67687;43.508;1.504;2024-03-07T12:09:19;3.63;;;1.30;;
78402;SDS011;67687;43.508;1.504;2024-03-07T12:11:49;2.80;;;1.25;;
78402;SDS011;67687;43.508;1.504;2024-03-07T12:14:19;4.07;;;1.02;;
78402;SDS011;67687;43.508;1.504;2024-03-07T12:16:45;3.97;;;1.50;;
78402;SDS011;67687;43.508;1.504;2024-03-07T12:19:12;3.95;;;1.42;;
78402;SDS011;67687;43.508;1.504;2024-03-07T12:21:42;7.18;;;1.85;;
78402;SDS011;67687;43.508;1.504;2024-03-07T12:24:12;4.57;;;1.25;;
78402;SDS011;67687;43.508;1.504;2024-03-07T12:26:39;3.80;;;1.40;;
78402;SDS011;67687;43.508;1.504;2024-03-07T12:29:08;4.87;;;1.30;;
78402;SDS011;67687;43.508;1.504;2024-03-07T12:31:38;5.65;;;1.50;;
78402;SDS011;67687;43.508;1.504;2024-03-07T12:34:05;3.38;;;1.25;;
78402;SDS011;67687;43.508;1.504;2024-03-07T12:36:34;3.30;;;1.45;;
78402;SDS011;67687;43.508;1.504;2024-03-07T12:39:10;7.72;;;1.65;;
78402;SDS011;67687;43.508;1.504;2024-03-07T12:41:49;3.70;;;1.33;;
78402;SDS011;67687;43.508;1.504;2024-03-07T12:44:17;3.60;;;1.33;;
78402;SDS011;67687;43.508;1.504;2024-03-07T12:46:47;6.45;;;1.75;;
78402;SDS011;67687;43.508;1.504;2024-03-07T12:49:14;7.07;;;2.00;;
78402;SDS011;67687;43.508;1.504;2024-03-07T12:51:41;5.47;;;1.48;;
78402;SDS011;67687;43.508;1.504;2024-03-07T12:54:08;3.20;;;1.10;;
78402;SDS011;67687;43.508;1.504;2024-03-07T12:56:35;4.28;;;1.60;;
78402;SDS011;67687;43.508;1.504;2024-03-07T12:59:02;5.20;;;1.42;;
78402;SDS011;67687;43.508;1.504;2024-03-07T13:01:29;3.55;;;1.42;;
78402;SDS011;67687;43.508;1.504;2024-03-07T13:03:57;4.32;;;1.17;;
78402;SDS011;67687;43.508;1.504;2024-03-07T13:06:23;3.33;;;1.20;;
78402;SDS011;67687;43.508;1.504;2024-03-07T13:08:54;6.63;;;1.52;;
78402;SDS011;67687;43.508;1.504;2024-03-07T13:11:21;5.07;;;1.58;;
78402;SDS011;67687;43.508;1.504;2024-03-07T13:13:48;4.88;;;1.00;;
78402;SDS011;67687;43.508;1.504;2024-03-07T13:16:17;4.43;;;1.50;;
78402;SDS011;67687;43.508;1.504;2024-03-07T13:18:44;3.97;;;1.10;;
78402;SDS011;67687;43.508;1.504;2024-03-07T13:21:12;5.18;;;1.48;;
78402;SDS011;67687;43.508;1.504;2024-03-07T13:23:42;3.63;;;1.48;;
78402;SDS011;67687;43.508;1.504;2024-03-07T13:26:09;7.25;;;1.67;;
78402;SDS011;67687;43.508;1.504;2024-03-07T13:28:41;4.97;;;1.83;;
78402;SDS011;67687;43.508;1.504;2024-03-07T13:31:09;6.17;;;1.50;;
78402;SDS011;67687;43.508;1.504;2024-03-07T13:33:36;3.30;;;1.25;;
78402;SDS011;67687;43.508;1.504;2024-03-07T13:36:03;3.75;;;1.27;;
78402;SDS011;67687;43.508;1.504;2024-03-07T13:38:31;5.70;;;2.28;;
78402;SDS011;67687;43.508;1.504;2024-03-07T13:40:57;4.18;;;1.30;;
78402;SDS011;67687;43.508;1.504;2024-03-07T13:43:24;5.47;;;1.70;;
78402;SDS011;67687;43.508;1.504;2024-03-07T13:45:50;5.05;;;1.40;;
78402;SDS011;67687;43.508;1.504;2024-03-07T13:48:17;4.88;;;1.42;;
78402;SDS011;67687;43.508;1.504;2024-03-07T13:50:44;6.63;;;1.50;;
78402;SDS011;67687;43.508;1.504;2024-03-07T13:53:10;5.80;;;1.80;;
78402;SDS011;67687;43.508;1.504;2024-03-07T13:55:53;11.63;;;1.30;;
78402;SDS011;67687;43.508;1.504;2024-03-07T13:58:25;5.07;;;1.30;;
78402;SDS011;67687;43.508;1.504;2024-03-07T14:00:57;5.28;;;1.80;;
78402;SDS011;67687;43.508;1.504;2024-03-07T14:03:38;5.35;;;1.67;;
78402;SDS011;67687;43.508;1.504;2024-03-07T14:06:06;4.13;;;1.60;;
78402;SDS011;67687;43.508;1.504;2024-03-07T14:14:33;5.05;;;1.40;;
78402;SDS011;67687;43.508;1.504;2024-03-07T14:17:19;6.32;;;1.48;;
78402;SDS011;67687;43.508;1.504;2024-03-07T14:20:10;4.13;;;1.38;;
78402;SDS011;67687;43.508;1.504;2024-03-07T14:22:54;4.97;;;1.80;;
78402;SDS011;67687;43.508;1.504;2024-03-07T14:25:43;3.85;;;1.42;;
78402;SDS011;67687;43.508;1.504;2024-03-07T14:28:17;4.18;;;1.60;;
78402;SDS011;67687;43.508;1.504;2024-03-07T14:30:55;3.78;;;1.48;;
78402;SDS011;67687;43.508;1.504;2024-03-07T14:33:27;5.25;;;1.55;;
78402;SDS011;67687;43.508;1.504;2024-03-07T14:35:58;3.57;;;1.50;;
78402;SDS011;67687;43.508;1.504;2024-03-07T14:38:28;4.38;;;1.50;;
78402;SDS011;67687;43.508;1.504;2024-03-07T14:40:54;4.07;;;1.25;;
78402;SDS011;67687;43.508;1.504;2024-03-07T14:43:21;5.25;;;2.20;;
78402;SDS011;67687;43.508;1.504;2024-03-07T14:45:49;4.80;;;1.77;;
78402;SDS011;67687;43.508;1.504;2024-03-07T14:48:18;4.50;;;1.50;;
78402;SDS011;67687;43.508;1.504;2024-03-07T14:50:44;4.78;;;2.00;;
78402;SDS011;67687;43.508;1.504;2024-03-07T14:53:12;5.43;;;1.77;;
78402;SDS011;67687;43.508;1.504;2024-03-07T14:55:39;5.80;;;1.70;;
78402;SDS011;67687;43.508;1.504;2024-03-07T14:58:06;5.35;;;1.73;;
78402;SDS011;67687;43.508;1.504;2024-03-07T15:00:34;5.40;;;1.73;;